x

Sombrero Key, Fl (smkf1) Weather Station

4:00pm - Wed 23rd Apr 2014 All times are CDT. -4 hours from GMT.

  • Wind
    2mph, 3mph gusts
  • Air Temp 76°f
  • Sea Pressure 1014.4mb
  • Sombrero Key, Fl
  • Sombrero Key, Fl

More Historic Weather Station data

Upgrade to MSW Pro to gain access to the past 30 days of data for over 8000 Wavebouys and Weather Stations around the globe.

Join Pro

Comparision Forecast

View Surf forecast
   
Wed 04/23 4:00pm 2 3 mph 1014.4mb 76f
3:00pm 2 3 mph 1014.9mb 75f
2:00pm 3 5 mph 1015.3mb 74f
1:00pm 2
mph
1015.4mb 74f
12:00pm 2 3 mph 1015.9mb 74f
11:00am 5 6 mph 1016.1mb 74f
10:00am 5 6 mph 1015.9mb 74f
9:00am 5 7 mph 1015.4mb 74f
8:00am 6
mph
1014.9mb 73f
7:00am 7 8 mph 1014.4mb 73f
6:00am 6 8 mph 1013.7mb 73f
5:00am 9
mph
1013.6mb 73f
4:00am 9 11 mph 1013.4mb 74f
3:00am 9 11 mph 1013.4mb 74f
2:00am 9 11 mph 1013.7mb 74f
1:00am 8
mph
1014.1mb 74f
12:00am 6 7 mph 1014.3mb 74f
Tue 04/22 11:00pm 8 9 mph 1014.3mb 74f
10:00pm 8 9 mph 1014mb 74f
9:00pm 9
mph
1013.6mb 74f
8:00pm 14 15 mph 1013.3mb 74f
7:00pm 14 15 mph 1012.9mb 74f
6:00pm 13 15 mph 1013mb 74f
5:00pm 14 15 mph 1012.9mb 75f
4:00pm 14 15 mph 1013.4mb 75f
3:00pm 9 10 mph 1013.8mb 75f
2:00pm 5 6 mph 1014.4mb 75f
1:00pm 3
mph
1014.9mb 75f
12:00pm 1
mph
1015.3mb 76f
11:00am 5 6 mph 1015.5mb 74f
10:00am 8 9 mph 1015.3mb 73f
9:00am 10 11 mph 1014.6mb 73f
8:00am 13 14 mph 1014.3mb 73f
7:00am 11 13 mph 1013.7mb 73f
6:00am 11 13 mph 1013.2mb 73f
5:00am  -  1 mph 1013.4mb 74f
4:00am 2
mph
1013.6mb 74f
3:00am 1 2 mph 1013.9mb 75f
2:00am 6 8 mph 1014.4mb 75f
1:00am 9 10 mph 1015.3mb 75f
12:00am 11 13 mph 1015.7mb 74f
Mon 04/21 11:00pm 11 14 mph 1015.8mb 74f
10:00pm 14 15 mph 1015.4mb 73f
9:00pm 15 17 mph 1015.1mb 73f
8:00pm 17 20 mph 1014.6mb 73f
7:00pm 17 18 mph 1014.3mb 73f
6:00pm 16 17 mph 1014.5mb 74f
5:00pm 16 18 mph 1015mb 73f
4:00pm 17 18 mph 1015.5mb 72f
3:00pm 16 18 mph 1016.2mb 71f
2:00pm 17 18 mph 1016.8mb 71f
1:00pm 15 16 mph 1017.1mb 71f
12:00pm 16 17 mph 1017.6mb 71f
11:00am 15 16 mph 1017.8mb 70f
10:00am 15 17 mph 1017.6mb 70f
9:00am 16 18 mph 1017.4mb 69f
8:00am 20 21 mph 1016.7mb 70f
7:00am 17
mph
1016.3mb 70f
6:00am 17
mph
1016mb 71f
5:00am 17 18 mph 1015.8mb 72f
4:00am 14
mph
1015.9mb 72f
3:00am 15 16 mph 1016.1mb 73f
2:00am 8 10 mph 1016.6mb 74f
1:00am 6 7 mph 1017.4mb 73f
12:00am 8 10 mph 1017.9mb 73f
Sun 04/20 11:00pm 10 14 mph 1018mb 73f
10:00pm 10 11 mph 1017.8mb 73f
9:00pm 13 15 mph 1017.2mb 73f
8:00pm 14
mph
1016.9mb 73f
7:00pm 15 16 mph 1016.7mb 72f
6:00pm 14 16 mph 1016.7mb 73f
5:00pm 17 18 mph 1016.7mb 73f
4:00pm 17 18 mph 1017.1mb 73f
3:00pm 16 20 mph 1017.5mb 73f
2:00pm 14 15 mph 1017.9mb 73f
1:00pm 16 17 mph 1018mb 73f
12:00pm 15 17 mph 1018.2mb 73f
11:00am 18 20 mph 1018.3mb 73f
10:00am 15 18 mph 1017.9mb 73f
9:00am 16 17 mph 1017.7mb 73f
8:00am 18 21 mph 1017.3mb 73f
7:00am 20 22 mph 1016.3mb 73f
6:00am 20 21 mph 1015.8mb 73f
5:00am 14 16 mph 1015.8mb 73f
4:00am 14 16 mph 1015.9mb 73f
3:00am 16 20 mph 1016.2mb 73f
2:00am 18 22 mph 1016.5mb 73f
1:00am 20 23 mph 1017mb 73f
12:00am 18 20 mph 1017.3mb 74f
Sat 04/19 11:00pm 17 18 mph 1017.3mb 74f
10:00pm 16 21 mph 1016.8mb 75f